Time;durP1;ratioP1;P1;durP2;ratioP2;P2;SDS_P1;SDS_P2;PMS_P1;PMS_P2;Temp;Humidity;BMP_temperature;BMP_pressure;BME280_temperature;BME280_humidity;BME280_pressure;Samples;Min_cycle;Max_cycle;Signal;HPM_P1;HPM_P2
2022/11/26 00:01:12;;;;;;;12.33;7.67;;;7.60;99.90;;;;;;5052495;28;20460;-87
2022/11/26 00:03:39;;;;;;;14.10;8.13;;;7.50;99.90;;;;;;5077856;28;20448;-86
2022/11/26 00:06:22;;;;;;;16.87;9.27;;;7.50;99.90;;;;;;5076502;28;20456;-84
2022/11/26 00:08:48;;;;;;;13.30;7.30;;;7.50;99.90;;;;;;5050687;28;20691;-86
2022/11/26 00:11:16;;;;;;;13.13;7.63;;;7.50;99.90;;;;;;5044261;28;20444;-86
2022/11/26 00:13:43;;;;;;;13.70;8.20;;;7.50;99.90;;;;;;5038915;28;20438;-87
2022/11/26 00:16:13;;;;;;;15.17;8.10;;;7.60;99.90;;;;;;5044543;28;20913;-86
2022/11/26 00:18:39;;;;;;;14.23;7.67;;;7.60;99.90;;;;;;5061673;28;20440;-85
2022/11/26 00:21:15;;;;;;;14.60;8.60;;;7.60;99.90;;;;;;5058735;28;20446;-85
2022/11/26 00:23:43;;;;;;;14.67;9.37;;;7.60;99.90;;;;;;5037827;28;20444;-86
2022/11/26 00:26:15;;;;;;;17.43;11.13;;;7.60;99.90;;;;;;5045483;28;20452;-86
2022/11/26 00:28:49;;;;;;;19.20;10.63;;;7.60;99.90;;;;;;5050315;28;20480;-85
2022/11/26 00:31:17;;;;;;;15.60;10.23;;;7.60;99.90;;;;;;5042801;28;20438;-87
2022/11/26 00:33:44;;;;;;;13.93;9.37;;;7.60;99.90;;;;;;5039616;28;20836;-86
2022/11/26 00:36:18;;;;;;;14.70;8.87;;;7.50;99.90;;;;;;5042775;28;20862;-85
2022/11/26 00:38:47;;;;;;;11.17;8.90;;;7.50;99.90;;;;;;5046933;28;20445;-85
2022/11/26 00:41:17;;;;;;;13.20;8.60;;;7.40;99.90;;;;;;5040466;28;20446;-87
2022/11/26 00:43:45;;;;;;;12.47;8.90;;;7.50;99.90;;;;;;5041650;28;20458;-86
2022/11/26 00:46:13;;;;;;;11.17;8.40;;;7.50;99.90;;;;;;5053872;28;20441;-85
2022/11/26 00:48:42;;;;;;;12.73;7.83;;;7.60;99.90;;;;;;5054268;28;20504;-85
2022/11/26 00:51:13;;;;;;;14.43;7.70;;;7.60;99.90;;;;;;5052823;28;20446;-86
2022/11/26 00:53:40;;;;;;;14.40;7.23;;;7.70;99.90;;;;;;5044958;28;20519;-86
2022/11/26 00:56:13;;;;;;;11.93;8.03;;;7.80;99.90;;;;;;5053303;28;20499;-86
2022/11/26 00:58:40;;;;;;;8.93;7.27;;;7.70;99.90;;;;;;5038443;28;20442;-86
2022/11/26 01:01:08;;;;;;;12.83;7.90;;;7.80;99.90;;;;;;5040821;28;20456;-85
2022/11/26 01:03:35;;;;;;;15.30;7.80;;;7.90;99.90;;;;;;5048861;28;20525;-86
2022/11/26 01:06:03;;;;;;;14.93;8.40;;;7.90;99.90;;;;;;5057034;28;20445;-87
2022/11/26 01:08:33;;;;;;;14.80;9.00;;;7.90;99.90;;;;;;5047527;28;20478;-87
2022/11/26 01:11:01;;;;;;;11.60;8.50;;;7.90;99.90;;;;;;5051173;28;20891;-86
2022/11/26 01:13:29;;;;;;;15.50;8.60;;;7.90;99.90;;;;;;5044109;28;20462;-85
2022/11/26 01:15:56;;;;;;;13.17;8.93;;;8.00;99.90;;;;;;5046732;28;20452;-86
2022/11/26 01:18:24;;;;;;;11.23;8.57;;;8.00;99.90;;;;;;5053969;28;20817;-84
2022/11/26 01:20:51;;;;;;;16.50;8.53;;;8.00;99.90;;;;;;5050370;28;20442;-85
2022/11/26 01:23:19;;;;;;;12.87;8.97;;;8.00;99.90;;;;;;5073111;28;20432;-85
2022/11/26 01:25:47;;;;;;;14.30;8.50;;;8.00;99.90;;;;;;5072392;28;20421;-85
2022/11/26 01:28:16;;;;;;;13.90;9.43;;;8.00;99.90;;;;;;5047223;28;20484;-85
2022/11/26 01:30:43;;;;;;;14.67;8.20;;;8.00;99.90;;;;;;5039285;28;20446;-85
2022/11/26 01:33:10;;;;;;;16.57;8.73;;;8.00;99.90;;;;;;5044634;28;20456;-86
2022/11/26 01:35:37;;;;;;;12.13;8.07;;;8.00;99.90;;;;;;5064391;28;20424;-86
2022/11/26 01:38:05;;;;;;;10.63;8.57;;;8.00;99.90;;;;;;5079235;28;20428;-85
2022/11/26 01:40:54;;;;;;;14.20;9.10;;;8.00;99.90;;;;;;5071682;28;20521;-85
2022/11/26 01:43:26;;;;;;;13.90;8.57;;;8.00;99.90;;;;;;5048582;28;20474;-86
2022/11/26 01:45:53;;;;;;;14.13;9.17;;;8.00;99.90;;;;;;5051275;28;20464;-85
2022/11/26 01:48:27;;;;;;;14.23;8.00;;;8.00;99.90;;;;;;5057716;28;20786;-85
2022/11/26 01:51:05;;;;;;;15.23;9.40;;;8.00;99.90;;;;;;5051673;28;20441;-86
2022/11/26 01:53:41;;;;;;;13.00;8.23;;;8.10;99.90;;;;;;5059588;28;20445;-86
2022/11/26 01:56:18;;;;;;;12.70;7.40;;;8.10;99.90;;;;;;5047725;28;20445;-85
2022/11/26 01:58:49;;;;;;;14.87;8.83;;;8.10;99.90;;;;;;5040983;28;20950;-85
2022/11/26 02:01:16;;;;;;;10.27;7.57;;;8.10;99.90;;;;;;5048114;28;20453;-85
2022/11/26 02:03:49;;;;;;;14.63;8.17;;;8.10;99.90;;;;;;5058286;28;20504;-85
2022/11/26 02:06:22;;;;;;;11.20;7.87;;;8.10;99.90;;;;;;5059098;28;20457;-86
2022/11/26 02:08:49;;;;;;;12.13;7.60;;;8.10;99.90;;;;;;5054110;28;20504;-84
2022/11/26 02:11:20;;;;;;;15.40;9.47;;;8.10;99.90;;;;;;5049126;28;20533;-84
2022/11/26 02:17:33;;;;;;;10.47;7.23;;;8.00;99.90;;;;;;4957719;28;20465;-85
2022/11/26 02:20:35;;;;;;;13.00;9.80;;;7.90;99.90;;;;;;4971862;28;20480;-86
2022/11/26 02:23:28;;;;;;;14.30;9.47;;;8.00;99.90;;;;;;5013246;28;20478;-86
2022/11/26 02:26:26;;;;;;;14.30;8.53;;;7.90;99.90;;;;;;5013372;28;20992;-86
2022/11/26 02:29:11;;;;;;;18.00;9.80;;;7.90;99.90;;;;;;4990273;28;20491;-85
2022/11/26 02:31:44;;;;;;;14.33;9.43;;;7.80;99.90;;;;;;5027872;28;20446;-86
2022/11/26 02:34:17;;;;;;;15.03;10.17;;;7.80;99.90;;;;;;5019646;28;20477;-86
2022/11/26 02:36:49;;;;;;;12.50;8.20;;;7.80;99.90;;;;;;5013396;28;20460;-86
2022/11/26 02:39:17;;;;;;;10.60;9.00;;;7.80;99.90;;;;;;5013906;28;20454;-86
2022/11/26 02:41:45;;;;;;;14.40;9.53;;;7.80;99.90;;;;;;5015103;28;20451;-86
2022/11/26 02:44:14;;;;;;;17.57;9.30;;;7.70;99.90;;;;;;5016861;28;20474;-86
2022/11/26 02:46:45;;;;;;;13.90;8.97;;;7.70;99.90;;;;;;5016556;28;20831;-86
2022/11/26 02:49:16;;;;;;;20.53;10.57;;;7.60;99.90;;;;;;5018275;28;20493;-86
2022/11/26 02:51:45;;;;;;;14.67;10.03;;;7.60;99.90;;;;;;5035467;28;20455;-86
2022/11/26 02:54:15;;;;;;;13.80;10.00;;;7.60;99.90;;;;;;5029338;28;20557;-86
2022/11/26 02:56:43;;;;;;;15.03;9.57;;;7.70;99.90;;;;;;5018141;28;20469;-86
2022/11/26 02:59:11;;;;;;;17.93;10.93;;;7.70;99.90;;;;;;5017281;28;20453;-86
2022/11/26 03:01:44;;;;;;;11.90;8.40;;;7.70;99.90;;;;;;5017771;28;20553;-86
2022/11/26 03:04:17;;;;;;;15.40;9.47;;;7.80;99.90;;;;;;5016759;28;20472;-85
2022/11/26 03:06:45;;;;;;;15.60;9.10;;;7.80;99.90;;;;;;5016311;28;20449;-86
2022/11/26 03:09:12;;;;;;;15.20;8.30;;;7.80;99.90;;;;;;5016160;28;20484;-86
2022/11/26 03:11:38;;;;;;;15.07;9.07;;;7.80;99.90;;;;;;5019141;28;20801;-86
2022/11/26 03:14:05;;;;;;;16.53;8.60;;;7.90;99.90;;;;;;5017758;28;20485;-86
2022/11/26 03:16:32;;;;;;;21.37;9.50;;;7.90;99.90;;;;;;5016203;28;20448;-86
2022/11/26 03:19:00;;;;;;;14.20;8.90;;;7.90;99.90;;;;;;5016126;28;20537;-86
2022/11/26 03:21:28;;;;;;;11.17;9.33;;;8.00;99.90;;;;;;5019842;28;20447;-86
2022/11/26 03:23:55;;;;;;;12.73;9.20;;;7.90;99.90;;;;;;5016361;28;20466;-86
2022/11/26 03:26:22;;;;;;;13.27;8.20;;;7.90;99.90;;;;;;5015923;28;20442;-86
2022/11/26 03:28:48;;;;;;;12.77;8.53;;;8.00;99.90;;;;;;5015678;28;20493;-86
2022/11/26 03:31:15;;;;;;;11.23;8.00;;;8.00;99.90;;;;;;5016042;28;21053;-86
2022/11/26 03:33:42;;;;;;;13.90;8.80;;;7.90;99.90;;;;;;5016202;28;20477;-86
2022/11/26 03:36:10;;;;;;;14.20;9.60;;;8.00;99.90;;;;;;5023182;28;20446;-86
2022/11/26 03:38:41;;;;;;;10.67;8.37;;;7.90;99.90;;;;;;5039819;28;20431;-85
2022/11/26 03:41:08;;;;;;;16.27;10.10;;;7.80;99.90;;;;;;5025007;28;20453;-86
2022/11/26 03:43:41;;;;;;;14.97;9.60;;;7.70;99.90;;;;;;5015876;28;20462;-86
2022/11/26 03:46:07;;;;;;;14.37;9.67;;;7.70;99.90;;;;;;5017030;28;20480;-86
2022/11/26 03:48:35;;;;;;;14.97;9.20;;;7.60;99.90;;;;;;5021301;28;20505;-86
2022/11/26 03:51:02;;;;;;;14.30;9.43;;;7.70;99.90;;;;;;5031250;28;20526;-87
2022/11/26 03:53:30;;;;;;;15.20;10.17;;;7.60;99.90;;;;;;5036122;28;20446;-86
2022/11/26 03:55:59;;;;;;;17.10;10.33;;;7.60;99.90;;;;;;5040248;28;20499;-86
2022/11/26 03:58:26;;;;;;;14.70;8.50;;;7.50;99.90;;;;;;5034466;28;20442;-86
2022/11/26 04:00:54;;;;;;;11.40;8.90;;;7.40;99.90;;;;;;5033682;28;20436;-86
2022/11/26 04:03:21;;;;;;;18.97;10.37;;;7.30;99.90;;;;;;5032757;28;20526;-86
2022/11/26 04:05:47;;;;;;;15.50;10.53;;;7.20;99.90;;;;;;5023452;28;20473;-86
2022/11/26 04:08:14;;;;;;;17.77;10.23;;;7.20;99.90;;;;;;5015270;28;20510;-87
2022/11/26 04:10:42;;;;;;;18.93;9.90;;;7.20;99.90;;;;;;5015153;28;20456;-86
2022/11/26 04:13:11;;;;;;;17.00;11.37;;;7.10;99.90;;;;;;5015095;28;20505;-86
2022/11/26 04:15:38;;;;;;;12.17;10.60;;;7.10;99.90;;;;;;5014490;28;20442;-86
2022/11/26 04:18:04;;;;;;;13.53;10.80;;;7.10;99.90;;;;;;5014700;28;20446;-86
2022/11/26 04:20:31;;;;;;;18.20;11.13;;;7.10;99.90;;;;;;5015731;28;20966;-86
2022/11/26 04:22:58;;;;;;;21.77;11.43;;;7.20;99.90;;;;;;5015033;28;20835;-86
2022/11/26 04:25:25;;;;;;;15.90;11.17;;;7.20;99.90;;;;;;5014896;28;20447;-86
2022/11/26 04:27:53;;;;;;;17.33;10.93;;;7.20;99.90;;;;;;5014634;28;20454;-86
2022/11/26 04:30:21;;;;;;;13.33;9.83;;;7.20;99.90;;;;;;5014488;28;20460;-86
2022/11/26 04:32:48;;;;;;;17.47;13.07;;;7.20;99.90;;;;;;5015914;28;20557;-86
2022/11/26 04:35:15;;;;;;;13.00;10.00;;;7.30;99.90;;;;;;5015891;28;20465;-86
2022/11/26 04:37:42;;;;;;;13.77;9.33;;;7.30;99.90;;;;;;5016220;28;20454;-87
2022/11/26 04:40:11;;;;;;;13.47;11.40;;;7.30;99.90;;;;;;5021858;28;20438;-86
2022/11/26 04:42:37;;;;;;;11.17;10.00;;;7.30;99.90;;;;;;5039462;28;20529;-85
2022/11/26 04:45:39;;;;;;;23.83;11.73;;;7.30;99.90;;;;;;5030707;28;20831;-86
2022/11/26 04:48:07;;;;;;;17.67;13.60;;;7.30;99.90;;;;;;5038113;28;20423;-86
2022/11/26 04:50:33;;;;;;;14.60;11.00;;;7.30;99.90;;;;;;5021792;28;20443;-87
2022/11/26 04:53:02;;;;;;;16.70;10.43;;;7.30;99.90;;;;;;5014951;28;20462;-86
2022/11/26 04:55:29;;;;;;;18.27;11.17;;;7.30;99.90;;;;;;5021105;28;20427;-86
2022/11/26 04:57:56;;;;;;;21.80;12.73;;;7.30;99.90;;;;;;5018210;28;20439;-86
2022/11/26 05:00:23;;;;;;;21.00;12.80;;;7.30;99.90;;;;;;5015037;28;20454;-86
2022/11/26 05:02:51;;;;;;;16.30;11.63;;;7.30;99.90;;;;;;5014468;28;20466;-86
2022/11/26 05:05:18;;;;;;;16.50;12.47;;;7.20;99.90;;;;;;5013682;28;20453;-86
2022/11/26 05:07:44;;;;;;;15.90;11.13;;;7.20;99.90;;;;;;5013895;28;20462;-86
2022/11/26 05:10:12;;;;;;;21.07;12.00;;;7.20;99.90;;;;;;5020999;28;20486;-86
2022/11/26 05:12:39;;;;;;;21.10;11.60;;;7.20;99.90;;;;;;5025476;28;20458;-86
2022/11/26 05:15:07;;;;;;;20.73;12.20;;;7.10;99.90;;;;;;5030808;28;20447;-86
2022/11/26 05:17:34;;;;;;;15.60;12.37;;;7.00;99.90;;;;;;5023985;28;20439;-86
2022/11/26 05:20:02;;;;;;;20.87;11.67;;;6.90;99.90;;;;;;5019973;28;20453;-86
2022/11/26 05:22:29;;;;;;;19.90;11.57;;;6.80;99.90;;;;;;5018205;28;20466;-86
2022/11/26 05:24:55;;;;;;;16.10;13.10;;;6.80;99.90;;;;;;5014964;28;20447;-86
2022/11/26 05:27:22;;;;;;;17.67;13.07;;;6.70;99.90;;;;;;5014458;28;20455;-86
2022/11/26 05:29:49;;;;;;;15.27;11.50;;;6.60;99.90;;;;;;5013513;28;20482;-87
2022/11/26 05:32:16;;;;;;;16.50;12.37;;;6.60;99.90;;;;;;5014129;28;20463;-86
2022/11/26 05:34:43;;;;;;;16.00;13.20;;;6.50;99.90;;;;;;5013971;28;20450;-86
2022/11/26 05:37:11;;;;;;;18.97;13.70;;;6.50;99.90;;;;;;5013548;28;20982;-86
2022/11/26 05:39:37;;;;;;;25.30;15.60;;;6.50;99.90;;;;;;5013435;28;20442;-86
2022/11/26 05:42:05;;;;;;;17.30;12.93;;;6.50;99.90;;;;;;5013695;28;20448;-86
2022/11/26 05:44:34;;;;;;;16.83;12.97;;;6.40;99.90;;;;;;5013621;28;20458;-86
2022/11/26 05:47:00;;;;;;;15.07;12.20;;;6.40;99.90;;;;;;5013297;28;20603;-86
2022/11/26 05:49:27;;;;;;;21.07;12.17;;;6.40;99.90;;;;;;5014639;28;20482;-86
2022/11/26 05:51:55;;;;;;;21.70;12.37;;;6.40;99.90;;;;;;5035795;28;20436;-86
2022/11/26 05:54:23;;;;;;;22.47;12.90;;;6.40;99.90;;;;;;5030587;28;20451;-86
2022/11/26 05:56:50;;;;;;;18.90;11.53;;;6.40;99.90;;;;;;5014263;28;20458;-86
2022/11/26 05:59:17;;;;;;;17.30;11.27;;;6.50;99.90;;;;;;5014058;28;21030;-86
2022/11/26 06:01:44;;;;;;;18.47;11.40;;;6.40;99.90;;;;;;5022364;28;20447;-86
2022/11/26 06:04:14;;;;;;;20.33;13.33;;;6.40;99.90;;;;;;5037018;28;20525;-87
2022/11/26 06:06:41;;;;;;;16.33;12.43;;;6.40;99.90;;;;;;5019331;28;20447;-87
2022/11/26 06:09:08;;;;;;;14.97;11.53;;;6.40;99.90;;;;;;5021461;28;20469;-86
2022/11/26 06:11:38;;;;;;;21.33;12.53;;;6.40;99.90;;;;;;5028904;28;20445;-87
2022/11/26 06:14:11;;;;;;;20.30;13.00;;;6.40;99.90;;;;;;5030241;28;20970;-87
2022/11/26 06:33:23;;;;;;;20.23;13.13;;;6.20;99.90;;;;;;5012640;28;20462;-86
2022/11/26 06:35:57;;;;;;;16.80;14.10;;;6.10;99.90;;;;;;5048580;28;20465;-86
2022/11/26 06:38:25;;;;;;;20.83;13.60;;;6.10;99.90;;;;;;5033723;28;20461;-86
2022/11/26 06:40:58;;;;;;;19.30;11.93;;;6.10;99.90;;;;;;5047789;28;20450;-86
2022/11/26 06:43:26;;;;;;;15.97;13.17;;;6.10;99.90;;;;;;5041525;28;20990;-86
2022/11/26 06:45:53;;;;;;;15.10;13.40;;;6.10;99.90;;;;;;5034348;28;20449;-86
2022/11/26 06:48:26;;;;;;;19.07;13.53;;;6.00;99.90;;;;;;5033611;28;20442;-86
2022/11/26 06:50:53;;;;;;;15.60;13.07;;;6.00;99.90;;;;;;5035312;28;20878;-87
2022/11/26 06:53:20;;;;;;;19.83;11.30;;;6.00;99.90;;;;;;5032371;28;20473;-86
2022/11/26 06:55:46;;;;;;;22.57;11.97;;;6.00;99.90;;;;;;5033177;28;20528;-86
2022/11/26 06:58:14;;;;;;;16.70;13.90;;;6.00;99.90;;;;;;5034648;28;20824;-86
2022/11/26 07:06:52;;;;;;;18.30;12.93;;;5.90;99.90;;;;;;5027686;28;20969;-86
2022/11/26 07:09:18;;;;;;;15.30;11.23;;;5.90;99.90;;;;;;5026633;28;21040;-86
2022/11/26 07:11:45;;;;;;;22.57;12.10;;;5.80;99.90;;;;;;5031615;28;20444;-86
2022/11/26 07:14:20;;;;;;;21.17;11.70;;;5.80;99.90;;;;;;5028753;28;20476;-86
2022/11/26 07:17:22;;;;;;;;;;;;;;;;;;;;;
2022/11/26 07:26:26;;;;;;;21.43;14.67;;;6.00;99.90;;;;;;4887619;29;20465;-84
2022/11/26 07:29:22;;;;;;;25.77;14.67;;;6.00;99.90;;;;;;4961872;28;20494;-85
2022/11/26 07:32:30;;;;;;;14.60;11.00;;;6.20;99.90;;;;;;4971714;28;20491;-86
2022/11/26 07:35:37;;;;;;;;;;;;;;;;;;;;;
2022/11/26 07:38:33;;;;;;;17.43;11.17;;;6.40;99.90;;;;;;4998397;28;20976;-85
2022/11/26 07:41:05;;;;;;;15.27;10.47;;;6.50;99.90;;;;;;5009379;28;20516;-85
2022/11/26 07:43:34;;;;;;;18.83;13.97;;;6.50;99.90;;;;;;5052749;28;20462;-85
2022/11/26 07:46:02;;;;;;;21.07;14.50;;;6.50;99.90;;;;;;5059828;28;20430;-85
2022/11/26 07:48:29;;;;;;;14.77;11.77;;;6.70;99.90;;;;;;5054606;28;20496;-86
2022/11/26 07:50:56;;;;;;;14.90;11.70;;;6.80;99.90;;;;;;5033720;28;20477;-86
2022/11/26 07:53:23;;;;;;;16.70;11.67;;;6.90;99.90;;;;;;5034193;28;20458;-86
2022/11/26 07:55:50;;;;;;;15.53;12.47;;;7.00;99.90;;;;;;5045652;28;20520;-86
2022/11/26 07:58:18;;;;;;;17.73;12.67;;;7.20;99.90;;;;;;5044117;28;20452;-86
2022/11/26 08:00:44;;;;;;;12.80;10.87;;;7.20;99.90;;;;;;5035013;28;20783;-86
2022/11/26 08:03:11;;;;;;;14.97;11.30;;;7.30;99.90;;;;;;5033977;28;20461;-85
2022/11/26 08:05:41;;;;;;;18.57;10.73;;;7.30;99.90;;;;;;5027680;28;20454;-89
2022/11/26 08:08:07;;;;;;;11.43;9.93;;;7.20;99.90;;;;;;5016758;28;20442;-86
2022/11/26 08:10:34;;;;;;;16.07;10.03;;;7.20;99.90;;;;;;5014782;28;20478;-89
2022/11/26 08:13:01;;;;;;;12.50;9.93;;;7.20;99.90;;;;;;5015576;28;20992;-86
2022/11/26 08:15:31;;;;;;;19.50;9.63;;;7.20;99.90;;;;;;5015253;28;21005;-86
2022/11/26 08:17:58;;;;;;;16.93;10.33;;;7.20;99.90;;;;;;5014987;28;20454;-86
2022/11/26 08:20:25;;;;;;;14.63;11.03;;;7.20;99.90;;;;;;5025395;28;20439;-88
2022/11/26 08:22:52;;;;;;;13.57;9.43;;;7.30;99.90;;;;;;5036355;28;20461;-89
2022/11/26 08:25:22;;;;;;;12.10;9.80;;;7.40;99.90;;;;;;5036808;28;20426;-85
2022/11/26 08:27:49;;;;;;;17.00;10.43;;;7.50;99.90;;;;;;5026750;28;20521;-87
2022/11/26 08:30:16;;;;;;;10.87;9.30;;;7.60;99.90;;;;;;5014873;28;20494;-86
2022/11/26 08:32:44;;;;;;;13.10;9.87;;;7.60;99.90;;;;;;5015595;28;20475;-86
2022/11/26 08:35:12;;;;;;;14.43;10.10;;;7.50;99.90;;;;;;5016299;28;20451;-85
2022/11/26 08:37:38;;;;;;;13.30;9.50;;;7.50;99.90;;;;;;5015144;28;20912;-86
2022/11/26 08:40:07;;;;;;;14.23;10.47;;;7.60;99.90;;;;;;5014755;28;20973;-86
2022/11/26 08:42:33;;;;;;;10.93;8.23;;;7.50;99.90;;;;;;5014393;28;20470;-86
2022/11/26 08:45:00;;;;;;;15.60;9.30;;;7.60;99.90;;;;;;5035746;28;20423;-86
2022/11/26 08:47:28;;;;;;;13.67;9.70;;;7.60;99.90;;;;;;5030159;28;21010;-86
2022/11/26 08:49:56;;;;;;;14.43;10.00;;;7.60;99.90;;;;;;5015298;28;20486;-86
2022/11/26 08:52:24;;;;;;;12.97;9.90;;;7.70;99.90;;;;;;5023679;28;20464;-85
2022/11/26 08:54:51;;;;;;;12.00;9.57;;;7.90;99.90;;;;;;5034055;28;20452;-83
2022/11/26 08:57:17;;;;;;;14.30;10.60;;;8.00;99.90;;;;;;5034002;28;20529;-82
2022/11/26 08:59:47;;;;;;;10.53;9.50;;;8.10;99.90;;;;;;5040897;28;20442;-85
2022/11/26 09:02:14;;;;;;;14.30;9.00;;;8.10;99.90;;;;;;5049051;28;20540;-84
2022/11/26 09:04:42;;;;;;;16.13;9.20;;;8.50;99.90;;;;;;5041996;28;20438;-83
2022/11/26 09:07:10;;;;;;;11.53;9.93;;;9.10;99.90;;;;;;5050132;28;20449;-85
2022/11/26 09:09:37;;;;;;;10.10;7.80;;;9.40;99.90;;;;;;5053049;28;20445;-84
2022/11/26 09:12:04;;;;;;;13.20;8.30;;;9.20;99.90;;;;;;5044382;28;20429;-83
2022/11/26 09:14:36;;;;;;;20.03;11.03;;;8.90;99.90;;;;;;5048869;28;20449;-85
2022/11/26 09:17:03;;;;;;;25.53;23.07;;;8.80;99.90;;;;;;5038834;28;20943;-85
2022/11/26 09:19:30;;;;;;;18.17;13.50;;;9.00;99.90;;;;;;5036842;28;20429;-85
2022/11/26 09:21:56;;;;;;;16.03;12.40;;;9.30;99.90;;;;;;5036743;28;20439;-84
2022/11/26 09:24:24;;;;;;;12.00;9.10;;;9.50;99.90;;;;;;5034401;28;20445;-86
2022/11/26 09:26:52;;;;;;;14.20;8.87;;;9.80;99.90;;;;;;5033050;28;20444;-86
2022/11/26 09:29:21;;;;;;;13.67;8.90;;;10.00;99.90;;;;;;5033332;28;20441;-85
2022/11/26 09:31:49;;;;;;;10.50;8.13;;;10.40;99.90;;;;;;5023930;28;20475;-85
2022/11/26 09:34:31;;;;;;;;;;;;;;;;;;;;;
2022/11/26 09:36:58;;;;;;;10.90;8.77;;;11.20;99.90;;;;;;5017308;28;20452;-85
2022/11/26 09:39:32;;;;;;;11.33;9.57;;;11.70;99.90;;;;;;5030603;28;20477;-85
2022/11/26 09:45:59;;;;;;;;;;;;;;;;;;;;;
2022/11/26 09:49:47;;;;;;;;;;;;;;;;;;;;;
2022/11/26 09:55:04;;;;;;;10.37;8.47;;;14.90;99.90;;;;;;4757410;26;20469;-88
2022/11/26 09:57:39;;;;;;;10.50;7.63;;;14.70;99.90;;;;;;5037208;28;20449;-84
2022/11/26 10:00:23;;;;;;;10.87;7.33;;;15.30;99.90;;;;;;5056814;28;20485;-83
2022/11/26 10:02:59;;;;;;;11.67;8.77;;;16.00;99.90;;;;;;5058406;28;20453;-84
2022/11/26 10:05:40;;;;;;;12.10;8.07;;;16.30;99.90;;;;;;5058663;28;20465;-84
2022/11/26 10:08:21;;;;;;;9.93;6.63;;;15.80;98.10;;;;;;5056507;28;20460;-84
2022/11/26 10:10:56;;;;;;;11.40;6.73;;;15.20;98.80;;;;;;5043895;28;20512;-84
2022/11/26 10:13:36;;;;;;;10.70;6.13;;;15.10;99.90;;;;;;5043474;28;20484;-85
2022/11/26 10:19:31;;;;;;;9.70;6.80;;;15.20;99.90;;;;;;5035349;28;20464;-86
2022/11/26 10:22:18;;;;;;;14.83;8.83;;;16.30;99.30;;;;;;5032776;28;20434;-88
2022/11/26 10:24:45;;;;;;;12.53;7.90;;;17.20;97.20;;;;;;5034085;28;20448;-88
2022/11/26 10:27:17;;;;;;;11.77;8.07;;;18.10;95.70;;;;;;5033338;28;20962;-89
2022/11/26 10:29:48;;;;;;;8.70;6.60;;;17.80;94.60;;;;;;5033256;28;20438;-85
2022/11/26 10:32:18;;;;;;;10.50;6.80;;;17.00;95.30;;;;;;5035263;28;20469;-85
2022/11/26 10:34:50;;;;;;;10.00;6.73;;;16.50;96.10;;;;;;5033178;28;20965;-85
2022/11/26 10:37:18;;;;;;;13.40;8.40;;;15.30;96.30;;;;;;5032702;28;20526;-85
2022/11/26 10:39:45;;;;;;;8.80;6.80;;;14.20;98.30;;;;;;5034677;28;20473;-85
2022/11/26 10:42:17;;;;;;;11.90;5.70;;;13.60;99.90;;;;;;5033604;28;20453;-85
2022/11/26 10:44:44;;;;;;;13.60;5.70;;;13.20;99.90;;;;;;5036008;28;20453;-84
2022/11/26 10:47:26;;;;;;;12.50;7.73;;;13.00;99.90;;;;;;5052886;28;20433;-85
2022/11/26 10:49:54;;;;;;;9.77;5.90;;;13.30;99.90;;;;;;5032821;28;20946;-84
2022/11/26 10:52:25;;;;;;;10.70;6.20;;;13.70;99.90;;;;;;5033526;28;20496;-84
2022/11/26 10:55:26;;;;;;;10.30;6.53;;;14.00;99.90;;;;;;5030512;28;20503;-85
2022/11/26 10:57:57;;;;;;;8.90;6.20;;;14.20;99.90;;;;;;4960999;28;20443;-85
2022/11/26 11:00:33;;;;;;;11.83;7.17;;;14.60;99.90;;;;;;4956262;28;20459;-85
2022/11/26 11:03:01;;;;;;;18.77;7.87;;;15.50;98.50;;;;;;4996879;28;20465;-86
2022/11/26 11:05:29;;;;;;;9.40;7.57;;;15.40;97.40;;;;;;5033887;28;20437;-86
2022/11/26 11:07:55;;;;;;;13.30;8.30;;;14.90;97.40;;;;;;5034374;28;21019;-85
2022/11/26 11:10:24;;;;;;;10.23;7.30;;;14.30;98.00;;;;;;5033563;28;21040;-86
2022/11/26 11:13:03;;;;;;;15.97;7.57;;;13.90;98.70;;;;;;5035611;28;20462;-86
2022/11/26 11:15:32;;;;;;;12.57;7.17;;;13.70;99.50;;;;;;5036237;28;20445;-85
2022/11/26 11:18:01;;;;;;;19.10;8.80;;;14.20;99.90;;;;;;5035093;28;20478;-84
2022/11/26 11:20:32;;;;;;;13.30;8.23;;;14.40;99.10;;;;;;5035572;28;20460;-85
2022/11/26 11:23:21;;;;;;;9.83;7.10;;;14.60;99.20;;;;;;5034822;28;20492;-85
2022/11/26 11:25:58;;;;;;;10.47;6.57;;;15.40;99.90;;;;;;5035342;28;20442;-85
2022/11/26 11:28:28;;;;;;;9.30;7.23;;;17.50;95.80;;;;;;5034738;28;20449;-85
2022/11/26 11:31:05;;;;;;;10.17;4.60;;;20.60;92.70;;;;;;5040091;28;20477;-85
2022/11/26 11:33:32;;;;;;;7.83;4.30;;;20.70;87.80;;;;;;5057369;28;20449;-85
2022/11/26 11:36:15;;;;;;;7.20;4.00;;;18.80;87.80;;;;;;5040804;28;20446;-85
2022/11/26 11:38:47;;;;;;;10.70;4.00;;;18.80;90.70;;;;;;5037845;28;20441;-86
2022/11/26 11:41:23;;;;;;;11.00;3.10;;;21.00;89.40;;;;;;5050090;28;20505;-88
2022/11/26 11:43:57;;;;;;;6.80;3.83;;;23.70;80.10;;;;;;5049832;28;20461;-86
2022/11/26 11:46:47;;;;;;;6.73;3.37;;;24.60;70.30;;;;;;5039114;28;20919;-85
2022/11/26 11:49:25;;;;;;;7.53;4.07;;;25.10;68.60;;;;;;5052686;28;20446;-85
2022/11/26 11:52:09;;;;;;;8.00;4.53;;;25.00;66.00;;;;;;5036893;28;20481;-87
2022/11/26 11:54:47;;;;;;;8.77;3.93;;;23.30;65.30;;;;;;5034667;28;20536;-87
2022/11/26 11:57:24;;;;;;;14.13;4.07;;;21.10;69.20;;;;;;5031975;28;20819;-87
2022/11/26 12:00:12;;;;;;;9.63;4.37;;;19.00;73.90;;;;;;5053615;28;20448;-87
2022/11/26 12:03:03;;;;;;;7.93;3.53;;;17.40;80.00;;;;;;5051871;28;20468;-86
2022/11/26 12:05:40;;;;;;;8.03;3.80;;;18.20;85.60;;;;;;5032657;28;20438;-87
2022/11/26 12:08:17;;;;;;;6.30;3.10;;;20.70;80.20;;;;;;5032488;28;20444;-86
2022/11/26 12:10:48;;;;;;;7.37;3.80;;;22.30;73.90;;;;;;5033860;28;20473;-86
2022/11/26 12:13:16;;;;;;;11.17;3.77;;;21.30;70.10;;;;;;5033074;28;20458;-86
2022/11/26 12:15:50;;;;;;;14.10;4.43;;;20.00;72.30;;;;;;5033245;28;20452;-86
2022/11/26 12:18:25;;;;;;;6.03;4.33;;;19.60;75.60;;;;;;5033362;28;20475;-86
2022/11/26 12:20:56;;;;;;;7.40;4.90;;;20.30;73.90;;;;;;5033656;28;20437;-86
2022/11/26 12:23:29;;;;;;;12.07;5.07;;;21.40;74.10;;;;;;5053844;28;20441;-85
2022/11/26 12:26:05;;;;;;;10.37;4.83;;;22.20;72.30;;;;;;5057154;28;20436;-85
2022/11/26 12:28:36;;;;;;;11.03;5.77;;;22.10;71.80;;;;;;5040319;28;20779;-86
2022/11/26 12:31:10;;;;;;;5.80;4.70;;;20.90;73.00;;;;;;5042331;28;21982;-85
2022/11/26 12:33:42;;;;;;;7.73;5.03;;;20.60;75.50;;;;;;5048404;28;20438;-86
2022/11/26 12:36:17;;;;;;;10.60;4.30;;;20.70;74.90;;;;;;5062484;28;20509;-86
2022/11/26 12:38:48;;;;;;;10.83;4.30;;;20.40;72.80;;;;;;5046902;28;20501;-86
2022/11/26 12:41:19;;;;;;;6.50;3.60;;;19.70;74.30;;;;;;5045609;28;20438;-86
2022/11/26 12:43:50;;;;;;;6.03;3.33;;;19.30;77.00;;;;;;5035292;28;20458;-86
2022/11/26 12:46:22;;;;;;;8.00;4.00;;;19.00;76.50;;;;;;5035143;28;20485;-86
2022/11/26 12:48:54;;;;;;;9.60;4.97;;;18.60;77.50;;;;;;5038571;28;20442;-85
2022/11/26 12:51:28;;;;;;;11.83;5.60;;;17.60;80.20;;;;;;5038240;28;20490;-86
2022/11/26 12:54:05;;;;;;;12.80;5.47;;;16.80;83.10;;;;;;5035276;28;20501;-86
2022/11/26 12:56:36;;;;;;;10.30;5.10;;;16.30;85.80;;;;;;5036321;28;20445;-85
2022/11/26 12:59:10;;;;;;;11.83;5.40;;;15.60;86.80;;;;;;5038996;28;20956;-87
2022/11/26 13:01:38;;;;;;;12.07;5.17;;;15.00;90.20;;;;;;5038123;28;20452;-86
2022/11/26 13:04:05;;;;;;;12.70;5.10;;;14.60;91.20;;;;;;5036840;28;20520;-85
2022/11/26 13:06:42;;;;;;;9.20;5.57;;;14.30;91.40;;;;;;5041146;28;20449;-85
2022/11/26 13:09:25;;;;;;;14.17;5.50;;;14.10;92.00;;;;;;5046593;28;20453;-85
2022/11/26 13:12:00;;;;;;;7.90;4.70;;;13.90;93.20;;;;;;5055933;28;20485;-85
2022/11/26 13:14:37;;;;;;;11.93;4.97;;;14.10;93.40;;;;;;5041069;28;20449;-85
2022/11/26 13:17:12;;;;;;;7.70;4.90;;;14.20;92.50;;;;;;5041988;28;20452;-86
2022/11/26 13:19:42;;;;;;;13.40;5.57;;;14.20;92.80;;;;;;5035148;28;20452;-85
2022/11/26 13:22:55;;;;;;;6.80;5.47;;;13.70;93.20;;;;;;5042813;28;20430;-85
2022/11/26 13:25:39;;;;;;;9.50;5.60;;;14.40;94.10;;;;;;5038786;28;20453;-86
2022/11/26 13:28:17;;;;;;;10.20;4.93;;;15.10;92.60;;;;;;5053456;28;20444;-85
2022/11/26 13:30:56;;;;;;;7.93;4.80;;;15.00;91.80;;;;;;5043664;28;20442;-85
2022/11/26 13:33:55;;;;;;;8.00;5.77;;;15.10;91.80;;;;;;5040633;28;20497;-85
2022/11/26 13:36:41;;;;;;;11.70;5.17;;;14.90;91.90;;;;;;5035284;28;20947;-85
2022/11/26 13:39:30;;;;;;;7.93;5.60;;;14.60;92.20;;;;;;5033863;28;20951;-86
2022/11/26 13:42:24;;;;;;;11.77;7.33;;;14.70;92.20;;;;;;5033462;28;20494;-86
2022/11/26 13:45:23;;;;;;;10.30;5.13;;;14.80;92.70;;;;;;5033870;28;20446;-86
2022/11/26 13:47:54;;;;;;;8.53;5.47;;;15.10;92.20;;;;;;5033134;28;20449;-87
2022/11/26 13:50:26;;;;;;;10.80;5.80;;;15.10;92.30;;;;;;5034015;28;20446;-86
2022/11/26 13:52:59;;;;;;;12.83;6.17;;;15.00;92.50;;;;;;5034435;28;20478;-86
2022/11/26 13:55:29;;;;;;;11.50;5.67;;;14.80;92.30;;;;;;5033613;28;20457;-86